sensor_id;sensor_type;location;lat;lon;timestamp;temperature;humidity
25346;DHT22;13300;51.032;3.710;2022-11-18T00:02:26;9.50;99.90
25346;DHT22;13300;51.032;3.710;2022-11-18T00:04:52;9.40;99.90
25346;DHT22;13300;51.032;3.710;2022-11-18T00:07:17;9.40;99.90
25346;DHT22;13300;51.032;3.710;2022-11-18T00:09:48;9.40;99.90
25346;DHT22;13300;51.032;3.710;2022-11-18T00:12:23;9.40;99.90
25346;DHT22;13300;51.032;3.710;2022-11-18T00:15:07;9.30;99.90
25346;DHT22;13300;51.032;3.710;2022-11-18T00:17:38;9.40;99.90
25346;DHT22;13300;51.032;3.710;2022-11-18T00:20:06;9.40;99.90
25346;DHT22;13300;51.032;3.710;2022-11-18T00:22:34;9.30;99.90
25346;DHT22;13300;51.032;3.710;2022-11-18T00:25:00;9.40;99.90
25346;DHT22;13300;51.032;3.710;2022-11-18T00:27:28;9.40;99.90
25346;DHT22;13300;51.032;3.710;2022-11-18T00:29:56;9.40;99.90
25346;DHT22;13300;51.032;3.710;2022-11-18T00:32:27;9.40;99.90
25346;DHT22;13300;51.032;3.710;2022-11-18T00:34:52;9.30;99.90
25346;DHT22;13300;51.032;3.710;2022-11-18T00:37:20;9.30;99.90
25346;DHT22;13300;51.032;3.710;2022-11-18T00:39:46;9.30;99.90
25346;DHT22;13300;51.032;3.710;2022-11-18T00:42:12;9.30;99.90
25346;DHT22;13300;51.032;3.710;2022-11-18T00:44:56;9.20;99.90
25346;DHT22;13300;51.032;3.710;2022-11-18T00:47:26;9.20;99.90
25346;DHT22;13300;51.032;3.710;2022-11-18T00:49:52;9.20;99.90
25346;DHT22;13300;51.032;3.710;2022-11-18T00:52:38;9.30;99.90
25346;DHT22;13300;51.032;3.710;2022-11-18T00:55:14;9.20;99.90
25346;DHT22;13300;51.032;3.710;2022-11-18T00:57:39;9.20;99.90
25346;DHT22;13300;51.032;3.710;2022-11-18T01:00:07;9.20;99.90
25346;DHT22;13300;51.032;3.710;2022-11-18T01:02:44;9.20;99.90
25346;DHT22;13300;51.032;3.710;2022-11-18T01:05:09;9.20;99.90
25346;DHT22;13300;51.032;3.710;2022-11-18T01:07:37;9.10;99.90
25346;DHT22;13300;51.032;3.710;2022-11-18T01:10:05;9.10;99.90
25346;DHT22;13300;51.032;3.710;2022-11-18T01:12:34;9.10;99.90
25346;DHT22;13300;51.032;3.710;2022-11-18T01:15:18;9.10;99.90
25346;DHT22;13300;51.032;3.710;2022-11-18T01:17:44;9.00;99.90
25346;DHT22;13300;51.032;3.710;2022-11-18T01:20:10;8.90;99.90
25346;DHT22;13300;51.032;3.710;2022-11-18T01:22:39;9.00;99.90
25346;DHT22;13300;51.032;3.710;2022-11-18T01:25:05;8.90;99.90
25346;DHT22;13300;51.032;3.710;2022-11-18T01:27:34;8.90;99.90
25346;DHT22;13300;51.032;3.710;2022-11-18T01:30:02;9.00;99.90
25346;DHT22;13300;51.032;3.710;2022-11-18T01:32:28;8.90;99.90
25346;DHT22;13300;51.032;3.710;2022-11-18T01:34:56;8.90;99.90
25346;DHT22;13300;51.032;3.710;2022-11-18T01:37:29;8.90;99.90
25346;DHT22;13300;51.032;3.710;2022-11-18T01:39:55;8.80;99.90
25346;DHT22;13300;51.032;3.710;2022-11-18T01:42:30;8.90;99.90
25346;DHT22;13300;51.032;3.710;2022-11-18T01:45:00;8.90;99.90
25346;DHT22;13300;51.032;3.710;2022-11-18T01:47:36;8.90;99.90
25346;DHT22;13300;51.032;3.710;2022-11-18T01:50:09;8.90;99.90
25346;DHT22;13300;51.032;3.710;2022-11-18T01:52:37;8.80;99.90
25346;DHT22;13300;51.032;3.710;2022-11-18T01:55:12;8.80;99.90
25346;DHT22;13300;51.032;3.710;2022-11-18T01:57:57;8.80;99.90
25346;DHT22;13300;51.032;3.710;2022-11-18T02:00:25;8.80;99.90
25346;DHT22;13300;51.032;3.710;2022-11-18T02:02:53;8.90;99.90
25346;DHT22;13300;51.032;3.710;2022-11-18T02:05:18;8.80;99.90
25346;DHT22;13300;51.032;3.710;2022-11-18T02:07:49;8.80;99.90
25346;DHT22;13300;51.032;3.710;2022-11-18T02:10:17;8.80;99.90
25346;DHT22;13300;51.032;3.710;2022-11-18T02:12:45;8.80;99.90
25346;DHT22;13300;51.032;3.710;2022-11-18T02:15:16;8.90;99.90
25346;DHT22;13300;51.032;3.710;2022-11-18T02:30:41;8.80;99.90
25346;DHT22;13300;51.032;3.710;2022-11-18T02:33:09;8.80;99.90
25346;DHT22;13300;51.032;3.710;2022-11-18T02:40:47;8.70;99.90
25346;DHT22;13300;51.032;3.710;2022-11-18T02:43:24;8.70;99.90
25346;DHT22;13300;51.032;3.710;2022-11-18T02:46:01;8.80;99.90
25346;DHT22;13300;51.032;3.710;2022-11-18T02:48:31;8.70;99.90
25346;DHT22;13300;51.032;3.710;2022-11-18T02:53:35;8.70;99.90
25346;DHT22;13300;51.032;3.710;2022-11-18T02:56:02;8.70;99.90
25346;DHT22;13300;51.032;3.710;2022-11-18T02:58:31;8.70;99.90
25346;DHT22;13300;51.032;3.710;2022-11-18T03:03:42;8.70;99.90
25346;DHT22;13300;51.032;3.710;2022-11-18T03:17:09;8.70;99.90
25346;DHT22;13300;51.032;3.710;2022-11-18T03:22:45;8.50;99.90
25346;DHT22;13300;51.032;3.710;2022-11-18T03:25:18;8.60;99.90
25346;DHT22;13300;51.032;3.710;2022-11-18T03:30:24;8.70;99.90
25346;DHT22;13300;51.032;3.710;2022-11-18T03:32:55;8.70;99.90
25346;DHT22;13300;51.032;3.710;2022-11-18T03:35:32;8.50;99.90
25346;DHT22;13300;51.032;3.710;2022-11-18T03:38:08;8.50;99.90
25346;DHT22;13300;51.032;3.710;2022-11-18T03:40:37;8.50;99.90
25346;DHT22;13300;51.032;3.710;2022-11-18T03:43:07;8.50;99.90
25346;DHT22;13300;51.032;3.710;2022-11-18T03:45:44;8.50;99.90
25346;DHT22;13300;51.032;3.710;2022-11-18T03:48:20;8.50;99.90
25346;DHT22;13300;51.032;3.710;2022-11-18T03:50:52;8.40;99.90
25346;DHT22;13300;51.032;3.710;2022-11-18T03:53:20;8.50;99.90
25346;DHT22;13300;51.032;3.710;2022-11-18T03:55:50;8.50;99.90
25346;DHT22;13300;51.032;3.710;2022-11-18T03:58:24;8.40;99.90
25346;DHT22;13300;51.032;3.710;2022-11-18T04:00:53;8.40;99.90
25346;DHT22;13300;51.032;3.710;2022-11-18T04:03:21;8.40;99.90
25346;DHT22;13300;51.032;3.710;2022-11-18T04:05:50;8.40;99.90
25346;DHT22;13300;51.032;3.710;2022-11-18T04:08:25;8.50;99.90
25346;DHT22;13300;51.032;3.710;2022-11-18T04:14:06;8.60;99.90
25346;DHT22;13300;51.032;3.710;2022-11-18T04:16:41;8.60;99.90
25346;DHT22;13300;51.032;3.710;2022-11-18T04:19:10;8.50;99.90
25346;DHT22;13300;51.032;3.710;2022-11-18T04:21:39;8.50;99.90
25346;DHT22;13300;51.032;3.710;2022-11-18T04:24:05;8.50;99.90
25346;DHT22;13300;51.032;3.710;2022-11-18T04:26:30;8.60;99.90
25346;DHT22;13300;51.032;3.710;2022-11-18T04:28:56;8.60;99.90
25346;DHT22;13300;51.032;3.710;2022-11-18T04:31:25;8.60;99.90
25346;DHT22;13300;51.032;3.710;2022-11-18T04:33:51;8.70;99.90
25346;DHT22;13300;51.032;3.710;2022-11-18T04:36:16;8.60;99.90
25346;DHT22;13300;51.032;3.710;2022-11-18T04:38:44;8.70;99.90
25346;DHT22;13300;51.032;3.710;2022-11-18T04:41:12;8.70;99.90
25346;DHT22;13300;51.032;3.710;2022-11-18T04:43:38;8.50;99.90
25346;DHT22;13300;51.032;3.710;2022-11-18T04:46:11;8.50;99.90
25346;DHT22;13300;51.032;3.710;2022-11-18T04:48:37;8.50;99.90
25346;DHT22;13300;51.032;3.710;2022-11-18T04:51:05;8.50;99.90
25346;DHT22;13300;51.032;3.710;2022-11-18T04:53:33;8.40;99.90
25346;DHT22;13300;51.032;3.710;2022-11-18T04:56:05;8.40;99.90
25346;DHT22;13300;51.032;3.710;2022-11-18T04:58:34;8.40;99.90
25346;DHT22;13300;51.032;3.710;2022-11-18T05:01:00;8.40;99.90
25346;DHT22;13300;51.032;3.710;2022-11-18T05:03:28;8.40;99.90
25346;DHT22;13300;51.032;3.710;2022-11-18T05:05:59;8.40;99.90
25346;DHT22;13300;51.032;3.710;2022-11-18T05:08:27;8.40;99.90
25346;DHT22;13300;51.032;3.710;2022-11-18T05:10:53;8.40;99.90
25346;DHT22;13300;51.032;3.710;2022-11-18T05:13:39;8.40;99.90
25346;DHT22;13300;51.032;3.710;2022-11-18T05:16:08;8.40;99.90
25346;DHT22;13300;51.032;3.710;2022-11-18T05:18:44;8.40;99.90
25346;DHT22;13300;51.032;3.710;2022-11-18T05:21:10;8.40;99.90
25346;DHT22;13300;51.032;3.710;2022-11-18T05:23:39;8.40;99.90
25346;DHT22;13300;51.032;3.710;2022-11-18T05:26:08;8.50;99.90
25346;DHT22;13300;51.032;3.710;2022-11-18T05:28:34;8.70;99.90
25346;DHT22;13300;51.032;3.710;2022-11-18T05:31:07;8.70;99.90
25346;DHT22;13300;51.032;3.710;2022-11-18T05:33:35;8.70;99.90
25346;DHT22;13300;51.032;3.710;2022-11-18T05:36:07;8.70;99.90
25346;DHT22;13300;51.032;3.710;2022-11-18T05:38:34;8.60;99.90
25346;DHT22;13300;51.032;3.710;2022-11-18T05:41:02;8.60;99.90
25346;DHT22;13300;51.032;3.710;2022-11-18T05:43:28;8.60;99.90
25346;DHT22;13300;51.032;3.710;2022-11-18T05:45:59;8.60;99.90
25346;DHT22;13300;51.032;3.710;2022-11-18T05:48:36;8.60;99.90
25346;DHT22;13300;51.032;3.710;2022-11-18T05:51:09;8.70;99.90
25346;DHT22;13300;51.032;3.710;2022-11-18T05:53:35;8.70;99.90
25346;DHT22;13300;51.032;3.710;2022-11-18T05:56:13;8.80;99.90
25346;DHT22;13300;51.032;3.710;2022-11-18T05:58:42;8.80;99.90
25346;DHT22;13300;51.032;3.710;2022-11-18T06:01:10;8.70;99.90
25346;DHT22;13300;51.032;3.710;2022-11-18T06:03:40;8.70;99.90
25346;DHT22;13300;51.032;3.710;2022-11-18T06:06:06;8.70;99.90
25346;DHT22;13300;51.032;3.710;2022-11-18T06:08:37;8.80;99.90
25346;DHT22;13300;51.032;3.710;2022-11-18T06:11:06;8.70;99.90
25346;DHT22;13300;51.032;3.710;2022-11-18T06:13:43;8.80;99.90
25346;DHT22;13300;51.032;3.710;2022-11-18T06:16:31;8.80;99.90
25346;DHT22;13300;51.032;3.710;2022-11-18T06:18:58;8.90;99.90
25346;DHT22;13300;51.032;3.710;2022-11-18T06:21:25;8.90;99.90
25346;DHT22;13300;51.032;3.710;2022-11-18T06:23:56;8.80;99.90
25346;DHT22;13300;51.032;3.710;2022-11-18T06:26:34;8.90;99.90
25346;DHT22;13300;51.032;3.710;2022-11-18T06:29:02;9.00;99.90
25346;DHT22;13300;51.032;3.710;2022-11-18T06:31:31;8.90;99.90
25346;DHT22;13300;51.032;3.710;2022-11-18T06:34:19;9.00;99.90
25346;DHT22;13300;51.032;3.710;2022-11-18T06:36:45;9.00;99.90
25346;DHT22;13300;51.032;3.710;2022-11-18T06:39:30;9.10;99.90
25346;DHT22;13300;51.032;3.710;2022-11-18T06:41:58;9.00;99.90
25346;DHT22;13300;51.032;3.710;2022-11-18T06:44:27;8.90;99.90
25346;DHT22;13300;51.032;3.710;2022-11-18T06:46:55;9.00;99.90
25346;DHT22;13300;51.032;3.710;2022-11-18T06:49:41;9.10;99.90
25346;DHT22;13300;51.032;3.710;2022-11-18T06:52:07;9.00;99.90
25346;DHT22;13300;51.032;3.710;2022-11-18T06:54:44;9.00;99.90
25346;DHT22;13300;51.032;3.710;2022-11-18T06:57:26;9.00;99.90
25346;DHT22;13300;51.032;3.710;2022-11-18T07:00:02;9.10;99.90
25346;DHT22;13300;51.032;3.710;2022-11-18T07:02:30;9.10;99.90
25346;DHT22;13300;51.032;3.710;2022-11-18T07:07:49;9.20;99.90
25346;DHT22;13300;51.032;3.710;2022-11-18T07:10:28;9.30;99.90
25346;DHT22;13300;51.032;3.710;2022-11-18T07:13:07;9.30;99.90
25346;DHT22;13300;51.032;3.710;2022-11-18T07:15:45;9.30;99.90
25346;DHT22;13300;51.032;3.710;2022-11-18T07:18:20;9.30;99.90
25346;DHT22;13300;51.032;3.710;2022-11-18T07:21:24;9.30;99.90
25346;DHT22;13300;51.032;3.710;2022-11-18T07:24:12;9.40;99.90
25346;DHT22;13300;51.032;3.710;2022-11-18T07:29:31;9.40;99.90
25346;DHT22;13300;51.032;3.710;2022-11-18T07:31:59;9.50;99.90
25346;DHT22;13300;51.032;3.710;2022-11-18T07:34:24;9.50;99.90
25346;DHT22;13300;51.032;3.710;2022-11-18T07:36:54;9.40;99.90
25346;DHT22;13300;51.032;3.710;2022-11-18T07:39:22;9.60;99.90
25346;DHT22;13300;51.032;3.710;2022-11-18T07:45:06;9.40;99.90
25346;DHT22;13300;51.032;3.710;2022-11-18T07:50:44;9.50;99.90
25346;DHT22;13300;51.032;3.710;2022-11-18T07:53:24;9.50;99.90
25346;DHT22;13300;51.032;3.710;2022-11-18T07:59:24;9.40;99.90
25346;DHT22;13300;51.032;3.710;2022-11-18T08:02:19;9.30;99.90
25346;DHT22;13300;51.032;3.710;2022-11-18T08:05:05;9.60;99.90
25346;DHT22;13300;51.032;3.710;2022-11-18T08:08:14;9.50;99.90
25346;DHT22;13300;51.032;3.710;2022-11-18T08:17:47;9.70;99.90
25346;DHT22;13300;51.032;3.710;2022-11-18T08:20:44;9.70;99.90
25346;DHT22;13300;51.032;3.710;2022-11-18T08:23:32;9.80;99.90
25346;DHT22;13300;51.032;3.710;2022-11-18T08:26:24;9.80;99.90
25346;DHT22;13300;51.032;3.710;2022-11-18T08:29:24;9.80;99.90
25346;DHT22;13300;51.032;3.710;2022-11-18T08:42:20;9.70;99.90
25346;DHT22;13300;51.032;3.710;2022-11-18T08:45:12;9.80;99.90
25346;DHT22;13300;51.032;3.710;2022-11-18T08:48:12;9.70;99.90
25346;DHT22;13300;51.032;3.710;2022-11-18T08:53:56;9.90;99.90
25346;DHT22;13300;51.032;3.710;2022-11-18T09:03:49;10.00;99.90
25346;DHT22;13300;51.032;3.710;2022-11-18T09:06:19;10.10;99.90
25346;DHT22;13300;51.032;3.710;2022-11-18T09:17:20;10.30;99.90
25346;DHT22;13300;51.032;3.710;2022-11-18T09:20:00;10.40;99.90
25346;DHT22;13300;51.032;3.710;2022-11-18T09:22:32;10.50;99.90
25346;DHT22;13300;51.032;3.710;2022-11-18T09:25:11;10.40;99.90
25346;DHT22;13300;51.032;3.710;2022-11-18T09:30:46;10.50;99.90
25346;DHT22;13300;51.032;3.710;2022-11-18T09:33:31;10.70;99.90
25346;DHT22;13300;51.032;3.710;2022-11-18T09:36:21;10.60;99.90
25346;DHT22;13300;51.032;3.710;2022-11-18T09:39:15;10.80;99.90
25346;DHT22;13300;51.032;3.710;2022-11-18T09:56:30;10.90;99.90
25346;DHT22;13300;51.032;3.710;2022-11-18T09:59:29;11.10;99.90
25346;DHT22;13300;51.032;3.710;2022-11-18T10:22:25;10.60;99.90
25346;DHT22;13300;51.032;3.710;2022-11-18T10:24:57;10.50;99.90
25346;DHT22;13300;51.032;3.710;2022-11-18T10:27:36;10.50;99.90
25346;DHT22;13300;51.032;3.710;2022-11-18T10:30:06;10.50;99.90
25346;DHT22;13300;51.032;3.710;2022-11-18T10:32:35;10.60;99.90
25346;DHT22;13300;51.032;3.710;2022-11-18T10:35:24;10.60;99.90
25346;DHT22;13300;51.032;3.710;2022-11-18T10:37:58;10.50;99.90
25346;DHT22;13300;51.032;3.710;2022-11-18T10:40:27;10.60;99.90
25346;DHT22;13300;51.032;3.710;2022-11-18T10:42:53;10.60;99.90
25346;DHT22;13300;51.032;3.710;2022-11-18T10:48:06;10.60;99.90
25346;DHT22;13300;51.032;3.710;2022-11-18T10:53:02;10.60;99.90
25346;DHT22;13300;51.032;3.710;2022-11-18T10:55:28;10.60;99.90
25346;DHT22;13300;51.032;3.710;2022-11-18T10:58:15;10.50;99.90
25346;DHT22;13300;51.032;3.710;2022-11-18T11:00:41;10.60;99.90
25346;DHT22;13300;51.032;3.710;2022-11-18T11:05:45;10.60;99.90
25346;DHT22;13300;51.032;3.710;2022-11-18T11:08:21;10.70;99.90
25346;DHT22;13300;51.032;3.710;2022-11-18T11:10:54;10.60;99.90
25346;DHT22;13300;51.032;3.710;2022-11-18T11:13:20;10.60;99.90
25346;DHT22;13300;51.032;3.710;2022-11-18T11:15:46;10.70;99.90
25346;DHT22;13300;51.032;3.710;2022-11-18T11:18:20;10.60;99.90
25346;DHT22;13300;51.032;3.710;2022-11-18T11:21:11;10.60;99.90
25346;DHT22;13300;51.032;3.710;2022-11-18T11:23:37;10.60;99.90
25346;DHT22;13300;51.032;3.710;2022-11-18T11:26:05;10.70;99.90
25346;DHT22;13300;51.032;3.710;2022-11-18T11:28:35;10.70;99.90
25346;DHT22;13300;51.032;3.710;2022-11-18T11:33:31;10.40;99.90
25346;DHT22;13300;51.032;3.710;2022-11-18T11:41:24;10.60;99.90
25346;DHT22;13300;51.032;3.710;2022-11-18T11:52:01;11.20;99.90
25346;DHT22;13300;51.032;3.710;2022-11-18T11:54:47;11.40;99.90
25346;DHT22;13300;51.032;3.710;2022-11-18T11:57:22;11.40;99.90
25346;DHT22;13300;51.032;3.710;2022-11-18T12:07:31;11.40;99.90
25346;DHT22;13300;51.032;3.710;2022-11-18T12:17:43;11.20;99.90
25346;DHT22;13300;51.032;3.710;2022-11-18T12:23:11;11.30;99.90
25346;DHT22;13300;51.032;3.710;2022-11-18T12:38:56;11.80;99.90
25346;DHT22;13300;51.032;3.710;2022-11-18T12:44:25;11.90;99.90
25346;DHT22;13300;51.032;3.710;2022-11-18T12:46:52;11.80;99.90
25346;DHT22;13300;51.032;3.710;2022-11-18T12:51:50;12.00;99.90
25346;DHT22;13300;51.032;3.710;2022-11-18T12:54:20;12.00;99.90
25346;DHT22;13300;51.032;3.710;2022-11-18T12:56:47;12.10;99.90
25346;DHT22;13300;51.032;3.710;2022-11-18T12:59:12;12.10;99.90
25346;DHT22;13300;51.032;3.710;2022-11-18T13:01:38;12.30;99.90
25346;DHT22;13300;51.032;3.710;2022-11-18T13:04:15;12.30;99.90
25346;DHT22;13300;51.032;3.710;2022-11-18T13:06:40;12.50;99.90
25346;DHT22;13300;51.032;3.710;2022-11-18T13:09:11;12.50;99.90
25346;DHT22;13300;51.032;3.710;2022-11-18T13:11:44;12.50;99.90
25346;DHT22;13300;51.032;3.710;2022-11-18T13:14:22;12.60;99.90
25346;DHT22;13300;51.032;3.710;2022-11-18T13:17:33;12.50;99.90
25346;DHT22;13300;51.032;3.710;2022-11-18T13:20:36;12.70;99.90
25346;DHT22;13300;51.032;3.710;2022-11-18T13:55:14;13.40;99.90
25346;DHT22;13300;51.032;3.710;2022-11-18T14:03:45;13.70;99.90
25346;DHT22;13300;51.032;3.710;2022-11-18T14:06:23;13.60;99.90
25346;DHT22;13300;51.032;3.710;2022-11-18T14:09:02;13.80;99.90
25346;DHT22;13300;51.032;3.710;2022-11-18T14:11:56;13.80;99.90
25346;DHT22;13300;51.032;3.710;2022-11-18T14:14:35;13.80;99.90
25346;DHT22;13300;51.032;3.710;2022-11-18T14:17:14;13.60;99.90
25346;DHT22;13300;51.032;3.710;2022-11-18T14:20:11;13.50;99.90
25346;DHT22;13300;51.032;3.710;2022-11-18T14:22:41;13.40;99.90
25346;DHT22;13300;51.032;3.710;2022-11-18T14:25:26;13.50;99.90
25346;DHT22;13300;51.032;3.710;2022-11-18T14:28:12;13.60;99.90
25346;DHT22;13300;51.032;3.710;2022-11-18T14:33:27;13.50;99.90
25346;DHT22;13300;51.032;3.710;2022-11-18T14:36:08;13.40;99.90
25346;DHT22;13300;51.032;3.710;2022-11-18T14:41:04;13.40;99.90
25346;DHT22;13300;51.032;3.710;2022-11-18T14:43:38;13.60;99.90
25346;DHT22;13300;51.032;3.710;2022-11-18T14:46:19;13.60;99.90
25346;DHT22;13300;51.032;3.710;2022-11-18T14:48:46;13.60;99.90
25346;DHT22;13300;51.032;3.710;2022-11-18T14:51:12;13.60;99.90
25346;DHT22;13300;51.032;3.710;2022-11-18T14:53:38;13.60;99.90
25346;DHT22;13300;51.032;3.710;2022-11-18T14:56:26;13.60;99.90
25346;DHT22;13300;51.032;3.710;2022-11-18T14:58:53;13.60;99.90
25346;DHT22;13300;51.032;3.710;2022-11-18T15:01:22;13.50;99.90
25346;DHT22;13300;51.032;3.710;2022-11-18T15:03:51;13.50;99.90
25346;DHT22;13300;51.032;3.710;2022-11-18T15:06:18;13.40;99.90
25346;DHT22;13300;51.032;3.710;2022-11-18T15:09:10;13.30;99.90
25346;DHT22;13300;51.032;3.710;2022-11-18T15:11:35;13.30;99.90
25346;DHT22;13300;51.032;3.710;2022-11-18T15:14:19;13.40;99.90
25346;DHT22;13300;51.032;3.710;2022-11-18T15:16:47;13.30;99.90
25346;DHT22;13300;51.032;3.710;2022-11-18T15:19:14;13.20;99.90
25346;DHT22;13300;51.032;3.710;2022-11-18T15:21:40;13.10;99.90
25346;DHT22;13300;51.032;3.710;2022-11-18T15:24:36;13.10;99.90
25346;DHT22;13300;51.032;3.710;2022-11-18T15:27:03;13.10;99.90
25346;DHT22;13300;51.032;3.710;2022-11-18T15:29:30;13.10;99.90
25346;DHT22;13300;51.032;3.710;2022-11-18T15:31:55;13.10;99.90
25346;DHT22;13300;51.032;3.710;2022-11-18T15:34:24;13.10;99.90
25346;DHT22;13300;51.032;3.710;2022-11-18T15:36:52;13.10;99.90
25346;DHT22;13300;51.032;3.710;2022-11-18T15:39:18;13.00;99.90
25346;DHT22;13300;51.032;3.710;2022-11-18T15:41:50;13.00;99.90
25346;DHT22;13300;51.032;3.710;2022-11-18T15:44:16;13.00;99.90
25346;DHT22;13300;51.032;3.710;2022-11-18T15:46:44;12.90;99.90
25346;DHT22;13300;51.032;3.710;2022-11-18T15:49:18;12.90;99.90
25346;DHT22;13300;51.032;3.710;2022-11-18T15:51:44;12.80;99.90
25346;DHT22;13300;51.032;3.710;2022-11-18T15:54:13;12.90;99.90
25346;DHT22;13300;51.032;3.710;2022-11-18T15:56:50;12.80;99.90
25346;DHT22;13300;51.032;3.710;2022-11-18T15:59:16;12.80;99.90
25346;DHT22;13300;51.032;3.710;2022-11-18T16:01:47;12.70;99.90
25346;DHT22;13300;51.032;3.710;2022-11-18T16:04:14;12.70;99.90
25346;DHT22;13300;51.032;3.710;2022-11-18T16:06:41;12.60;99.90
25346;DHT22;13300;51.032;3.710;2022-11-18T16:09:10;12.70;99.90
25346;DHT22;13300;51.032;3.710;2022-11-18T16:11:37;12.60;99.90
25346;DHT22;13300;51.032;3.710;2022-11-18T16:14:21;12.80;99.90
25346;DHT22;13300;51.032;3.710;2022-11-18T16:16:48;12.70;99.90
25346;DHT22;13300;51.032;3.710;2022-11-18T16:19:20;12.70;99.90
25346;DHT22;13300;51.032;3.710;2022-11-18T16:21:48;12.60;99.90
25346;DHT22;13300;51.032;3.710;2022-11-18T16:24:15;12.50;99.90
25346;DHT22;13300;51.032;3.710;2022-11-18T16:26:41;12.30;99.90
25346;DHT22;13300;51.032;3.710;2022-11-18T16:29:08;12.20;99.90
25346;DHT22;13300;51.032;3.710;2022-11-18T16:31:35;12.30;99.90
25346;DHT22;13300;51.032;3.710;2022-11-18T16:34:14;12.20;99.90
25346;DHT22;13300;51.032;3.710;2022-11-18T16:36:42;12.20;99.90
25346;DHT22;13300;51.032;3.710;2022-11-18T16:39:10;12.30;99.90
25346;DHT22;13300;51.032;3.710;2022-11-18T16:41:37;12.20;99.90
25346;DHT22;13300;51.032;3.710;2022-11-18T16:44:04;12.20;99.90
25346;DHT22;13300;51.032;3.710;2022-11-18T16:46:31;12.20;99.90
25346;DHT22;13300;51.032;3.710;2022-11-18T16:48:57;12.30;99.90
25346;DHT22;13300;51.032;3.710;2022-11-18T16:51:23;12.30;99.90
25346;DHT22;13300;51.032;3.710;2022-11-18T16:53:52;12.30;99.90
25346;DHT22;13300;51.032;3.710;2022-11-18T16:56:21;12.30;99.90
25346;DHT22;13300;51.032;3.710;2022-11-18T16:58:47;12.30;99.90
25346;DHT22;13300;51.032;3.710;2022-11-18T17:01:15;12.30;99.90
25346;DHT22;13300;51.032;3.710;2022-11-18T17:03:45;12.30;99.90
25346;DHT22;13300;51.032;3.710;2022-11-18T17:06:10;12.30;99.90
25346;DHT22;13300;51.032;3.710;2022-11-18T17:08:36;12.30;99.90
25346;DHT22;13300;51.032;3.710;2022-11-18T17:11:06;12.30;99.90
25346;DHT22;13300;51.032;3.710;2022-11-18T17:13:32;12.20;99.90
25346;DHT22;13300;51.032;3.710;2022-11-18T17:15:57;12.30;99.90
25346;DHT22;13300;51.032;3.710;2022-11-18T17:18:23;12.20;99.90
25346;DHT22;13300;51.032;3.710;2022-11-18T17:20:49;12.10;99.90
25346;DHT22;13300;51.032;3.710;2022-11-18T17:23:14;12.00;99.90
25346;DHT22;13300;51.032;3.710;2022-11-18T17:25:40;12.00;99.90
25346;DHT22;13300;51.032;3.710;2022-11-18T17:28:07;11.90;99.90
25346;DHT22;13300;51.032;3.710;2022-11-18T17:30:35;11.90;99.90
25346;DHT22;13300;51.032;3.710;2022-11-18T17:33:01;12.00;99.90
25346;DHT22;13300;51.032;3.710;2022-11-18T17:35:26;12.00;99.90
25346;DHT22;13300;51.032;3.710;2022-11-18T17:37:52;12.00;99.90
25346;DHT22;13300;51.032;3.710;2022-11-18T17:40:18;12.00;99.90
25346;DHT22;13300;51.032;3.710;2022-11-18T17:45:52;12.10;99.90
25346;DHT22;13300;51.032;3.710;2022-11-18T17:54:50;12.00;99.90
25346;DHT22;13300;51.032;3.710;2022-11-18T17:57:43;12.00;99.90
25346;DHT22;13300;51.032;3.710;2022-11-18T18:00:49;12.00;99.90
25346;DHT22;13300;51.032;3.710;2022-11-18T18:03:58;12.10;99.90
25346;DHT22;13300;51.032;3.710;2022-11-18T18:07:08;12.00;99.90
25346;DHT22;13300;51.032;3.710;2022-11-18T18:19:16;11.90;99.90
25346;DHT22;13300;51.032;3.710;2022-11-18T18:31:23;11.90;99.90
25346;DHT22;13300;51.032;3.710;2022-11-18T18:40:38;12.10;99.90
25346;DHT22;13300;51.032;3.710;2022-11-18T18:47:08;12.00;99.90
25346;DHT22;13300;51.032;3.710;2022-11-18T18:56:18;12.00;99.90
25346;DHT22;13300;51.032;3.710;2022-11-18T19:08:08;11.80;99.90
25346;DHT22;13300;51.032;3.710;2022-11-18T19:26:55;11.20;99.90
25346;DHT22;13300;51.032;3.710;2022-11-18T19:36:25;11.20;99.90
25346;DHT22;13300;51.032;3.710;2022-11-18T19:45:25;11.20;99.90
25346;DHT22;13300;51.032;3.710;2022-11-18T19:48:36;11.20;99.90
25346;DHT22;13300;51.032;3.710;2022-11-18T19:52:20;11.20;99.90
25346;DHT22;13300;51.032;3.710;2022-11-18T19:55:23;11.20;99.90
25346;DHT22;13300;51.032;3.710;2022-11-18T19:58:38;11.30;99.90
25346;DHT22;13300;51.032;3.710;2022-11-18T20:04:18;11.40;99.90
25346;DHT22;13300;51.032;3.710;2022-11-18T20:10:07;11.30;99.90
25346;DHT22;13300;51.032;3.710;2022-11-18T20:13:02;11.30;99.90
25346;DHT22;13300;51.032;3.710;2022-11-18T20:15:49;11.40;99.90
25346;DHT22;13300;51.032;3.710;2022-11-18T20:22:04;11.50;99.90
25346;DHT22;13300;51.032;3.710;2022-11-18T20:25:09;11.40;99.90
25346;DHT22;13300;51.032;3.710;2022-11-18T20:31:24;11.30;99.90
25346;DHT22;13300;51.032;3.710;2022-11-18T20:34:30;11.20;99.90
25346;DHT22;13300;51.032;3.710;2022-11-18T20:37:24;11.10;99.90
25346;DHT22;13300;51.032;3.710;2022-11-18T20:43:51;11.10;99.90
25346;DHT22;13300;51.032;3.710;2022-11-18T20:50:03;11.20;99.90
25346;DHT22;13300;51.032;3.710;2022-11-18T21:12:17;10.90;99.90
25346;DHT22;13300;51.032;3.710;2022-11-18T21:24:44;10.50;99.90
25346;DHT22;13300;51.032;3.710;2022-11-18T21:27:09;10.40;99.90
25346;DHT22;13300;51.032;3.710;2022-11-18T21:29:40;10.60;99.90
25346;DHT22;13300;51.032;3.710;2022-11-18T21:32:07;10.60;99.90
25346;DHT22;13300;51.032;3.710;2022-11-18T21:34:32;10.50;99.90
25346;DHT22;13300;51.032;3.710;2022-11-18T21:36:58;10.60;99.90
25346;DHT22;13300;51.032;3.710;2022-11-18T21:39:24;10.50;99.90
25346;DHT22;13300;51.032;3.710;2022-11-18T21:41:51;10.30;99.90
25346;DHT22;13300;51.032;3.710;2022-11-18T21:44:56;10.20;99.90
25346;DHT22;13300;51.032;3.710;2022-11-18T21:47:23;10.30;99.90
25346;DHT22;13300;51.032;3.710;2022-11-18T21:49:50;10.20;99.90
25346;DHT22;13300;51.032;3.710;2022-11-18T21:52:16;10.30;99.90
25346;DHT22;13300;51.032;3.710;2022-11-18T21:55:14;10.30;99.90
25346;DHT22;13300;51.032;3.710;2022-11-18T21:57:56;10.30;99.90
25346;DHT22;13300;51.032;3.710;2022-11-18T22:00:30;10.40;99.90
25346;DHT22;13300;51.032;3.710;2022-11-18T22:03:22;10.50;99.90
25346;DHT22;13300;51.032;3.710;2022-11-18T22:05:52;10.50;99.90
25346;DHT22;13300;51.032;3.710;2022-11-18T22:08:32;10.50;99.90
25346;DHT22;13300;51.032;3.710;2022-11-18T22:11:02;10.40;99.90
25346;DHT22;13300;51.032;3.710;2022-11-18T22:13:30;10.30;99.90
25346;DHT22;13300;51.032;3.710;2022-11-18T22:15:58;10.30;99.90
25346;DHT22;13300;51.032;3.710;2022-11-18T22:18:27;10.30;99.90
25346;DHT22;13300;51.032;3.710;2022-11-18T22:21:19;10.20;99.90
25346;DHT22;13300;51.032;3.710;2022-11-18T22:23:48;10.20;99.90
25346;DHT22;13300;51.032;3.710;2022-11-18T22:26:32;10.20;99.90
25346;DHT22;13300;51.032;3.710;2022-11-18T22:32:25;10.10;99.90
25346;DHT22;13300;51.032;3.710;2022-11-18T22:34:53;10.20;99.90